createdAt,value
2016-06-20T00:00:36.134Z,18.74
2016-06-20T00:01:36.215Z,18.78
2016-06-20T00:02:36.078Z,18.63
2016-06-20T00:03:36.097Z,18.71
2016-06-20T00:04:36.240Z,18.66
2016-06-20T00:05:36.151Z,18.71
2016-06-20T00:06:36.185Z,18.66
2016-06-20T00:07:36.845Z,18.65
2016-06-20T00:08:36.223Z,18.65
2016-06-20T00:09:36.258Z,18.6
2016-06-20T00:10:36.277Z,18.56
2016-06-20T00:11:36.312Z,18.65
2016-06-20T00:12:36.331Z,18.63
2016-06-20T00:13:36.350Z,18.59
2016-06-20T00:14:37.010Z,18.5
2016-06-20T00:15:36.436Z,18.55
2016-06-20T00:16:36.423Z,18.5
2016-06-20T00:17:36.457Z,18.49
2016-06-20T00:18:36.493Z,18.45
2016-06-20T00:19:37.122Z,18.45
2016-06-20T00:20:37.156Z,18.47
2016-06-20T00:21:36.565Z,18.38
2016-06-20T00:22:36.585Z,18.44
2016-06-20T00:23:37.244Z,18.37
2016-06-20T00:24:36.639Z,18.34
2016-06-20T00:25:36.657Z,18.29
2016-06-20T00:26:36.676Z,18.43
2016-06-20T00:27:36.712Z,18.31
2016-06-20T00:28:37.465Z,18.28
2016-06-20T00:29:36.765Z,18.31
2016-06-20T00:30:36.784Z,18.33
2016-06-20T00:31:36.819Z,18.22
2016-06-20T00:32:37.448Z,18.23
2016-06-20T00:33:36.857Z,18.25
2016-06-20T00:34:36.876Z,18.25
2016-06-20T00:35:36.927Z,18.18
2016-06-20T00:36:36.931Z,18.23
2016-06-20T00:37:36.949Z,18.11
2016-06-20T00:38:36.983Z,18.11
2016-06-20T00:39:37.237Z,18.16
2016-06-20T00:40:37.131Z,18.1
2016-06-20T00:41:37.181Z,18.16
2016-06-20T00:42:37.216Z,18.15
2016-06-20T00:43:37.267Z,18.11
2016-06-20T00:44:37.129Z,18.03
2016-06-20T00:45:37.774Z,18.13
2016-06-20T00:46:37.183Z,18.01
2016-06-20T00:47:37.203Z,18.04
2016-06-20T00:48:37.237Z,18.07
2016-06-20T00:49:37.257Z,18
2016-06-20T00:50:37.274Z,18.07
2016-06-20T00:51:37.310Z,18.05
2016-06-20T00:52:37.344Z,17.97
2016-06-20T00:53:37.442Z,18.03
2016-06-20T00:54:37.382Z,18.04
2016-06-20T00:55:37.417Z,18
2016-06-20T00:56:37.436Z,18.01
2016-06-20T00:57:37.471Z,17.95
2016-06-20T00:58:37.474Z,17.98
2016-06-20T00:59:37.510Z,17.86
2016-06-20T01:00:38.154Z,17.85
2016-06-20T01:01:37.548Z,17.94
2016-06-20T01:02:37.582Z,17.86
2016-06-20T01:03:37.617Z,17.83
2016-06-20T01:04:37.636Z,17.85
2016-06-20T01:05:37.656Z,17.79
2016-06-20T01:06:38.299Z,17.78
2016-06-20T01:07:37.709Z,17.89
2016-06-20T01:08:37.728Z,17.76
2016-06-20T01:09:38.372Z,17.76
2016-06-20T01:10:37.782Z,17.74
2016-06-20T01:11:37.817Z,17.76
2016-06-20T01:12:37.836Z,17.72
2016-06-20T01:13:37.854Z,17.72
2016-06-20T01:14:39.124Z,17.72
2016-06-20T01:15:38.019Z,17.7
2016-06-20T01:16:38.084Z,17.71
2016-06-20T01:17:37.962Z,17.71
2016-06-20T01:18:37.981Z,17.65
2016-06-20T01:19:38.000Z,17.65
2016-06-20T01:20:38.036Z,17.7
2016-06-20T01:21:38.054Z,17.67
2016-06-20T01:22:38.089Z,17.67
2016-06-20T01:23:38.218Z,17.64
2016-06-20T01:24:38.159Z,17.65
2016-06-20T01:25:38.162Z,17.54
2016-06-20T01:26:38.899Z,17.68
2016-06-20T01:27:38.200Z,17.56
2016-06-20T01:28:38.236Z,17.64
2016-06-20T01:29:38.254Z,17.51
2016-06-20T01:30:38.288Z,17.57
2016-06-20T01:31:38.308Z,17.64
2016-06-20T01:32:38.328Z,17.56
2016-06-20T01:33:38.362Z,17.54
2016-06-20T01:34:38.381Z,17.59
2016-06-20T01:35:38.477Z,17.54
2016-06-20T01:36:38.481Z,17.51
2016-06-20T01:37:38.454Z,17.41
2016-06-20T01:38:38.473Z,17.41
2016-06-20T01:39:38.508Z,17.44
2016-06-20T01:40:38.527Z,17.44
2016-06-20T01:41:39.201Z,17.34
2016-06-20T01:42:38.580Z,17.36
2016-06-20T01:43:38.708Z,17.36
2016-06-20T01:44:38.634Z,17.41
2016-06-20T01:45:38.637Z,17.36
2016-06-20T01:46:38.672Z,17.39
2016-06-20T01:47:38.707Z,17.34
2016-06-20T01:48:38.725Z,17.31
2016-06-20T01:49:38.745Z,17.3
2016-06-20T01:50:38.764Z,17.38
2016-06-20T01:51:39.408Z,17.34
2016-06-20T01:52:38.818Z,17.29
2016-06-20T01:53:38.837Z,17.26
2016-06-20T01:54:38.872Z,17.23
2016-06-20T01:55:38.891Z,17.26
2016-06-20T01:56:38.925Z,17.22
2016-06-20T01:57:38.945Z,17.19
2016-06-20T01:58:39.073Z,17.26
2016-06-20T01:59:39.014Z,17.22
2016-06-20T02:00:39.017Z,17.19
2016-06-20T02:01:39.145Z,17.16
2016-06-20T02:02:39.071Z,17.11
2016-06-20T02:03:39.090Z,17.08
2016-06-20T02:04:39.109Z,17.16
2016-06-20T02:05:39.253Z,17.08
2016-06-20T02:06:39.148Z,17.12
2016-06-20T02:07:39.791Z,17.14
2016-06-20T02:08:39.202Z,17.12
2016-06-20T02:09:39.236Z,17.14
2016-06-20T02:10:39.256Z,17.09
2016-06-20T02:11:39.274Z,17.04
2016-06-20T02:12:39.919Z,17.08
2016-06-20T02:13:39.344Z,16.97
2016-06-20T02:14:39.363Z,16.97
2016-06-20T02:15:39.382Z,16.96
2016-06-20T02:16:39.401Z,17.04
2016-06-20T02:17:39.436Z,16.96
2016-06-20T02:18:39.454Z,16.97
2016-06-20T02:19:39.473Z,16.9
2016-06-20T02:20:39.493Z,16.9
2016-06-20T02:21:40.261Z,17.04
2016-06-20T02:22:39.547Z,17.01
2016-06-20T02:23:39.582Z,17.04
2016-06-20T02:24:39.616Z,16.97
2016-06-20T02:25:39.619Z,17.04
2016-06-20T02:26:40.311Z,17.02
2016-06-20T02:27:41.064Z,16.87
2016-06-20T02:28:39.693Z,16.97
2016-06-20T02:29:39.728Z,16.97
2016-06-20T02:30:39.746Z,16.91
2016-06-20T02:31:39.765Z,16.99
2016-06-20T02:32:39.785Z,16.9
2016-06-20T02:33:39.819Z,16.87
2016-06-20T02:34:39.838Z,16.79
2016-06-20T02:35:39.967Z,16.78
2016-06-20T02:36:39.876Z,16.79
2016-06-20T02:37:39.911Z,16.79
2016-06-20T02:38:39.945Z,16.87
2016-06-20T02:39:39.980Z,16.84
2016-06-20T02:40:39.984Z,16.83
2016-06-20T02:41:40.003Z,16.81
2016-06-20T02:42:40.741Z,16.79
2016-06-20T02:43:40.151Z,16.84
2016-06-20T02:44:40.076Z,16.76
2016-06-20T02:45:40.720Z,16.78
2016-06-20T02:46:40.130Z,16.74
2016-06-20T02:47:40.211Z,16.81
2016-06-20T02:48:40.183Z,16.71
2016-06-20T02:49:40.203Z,16.72
2016-06-20T02:50:40.408Z,16.71
2016-06-20T02:51:41.490Z,16.76
2016-06-20T02:52:40.276Z,16.79
2016-06-20T02:53:40.404Z,16.65
2016-06-20T02:54:40.313Z,16.71
2016-06-20T02:55:40.332Z,16.6
2016-06-20T02:56:40.372Z,16.71
2016-06-20T02:57:41.071Z,16.68
2016-06-20T02:58:40.443Z,16.66
2016-06-20T02:59:40.470Z,16.69
2016-06-20T03:00:40.497Z,16.65
2016-06-20T03:01:40.522Z,16.58
2016-06-20T03:02:40.560Z,16.61
2016-06-20T03:03:40.582Z,16.57
2016-06-20T03:04:40.636Z,16.56
2016-06-20T03:05:40.705Z,16.58
2016-06-20T03:06:41.289Z,16.64
2016-06-20T03:07:40.793Z,16.56
2016-06-20T03:08:41.328Z,16.56
2016-06-20T03:09:40.739Z,16.5
2016-06-20T03:10:40.760Z,16.51
2016-06-20T03:11:40.795Z,16.57
2016-06-20T03:12:40.814Z,16.5
2016-06-20T03:13:40.944Z,16.5
2016-06-20T03:14:40.870Z,16.53
2016-06-20T03:15:40.873Z,16.39
2016-06-20T03:16:40.908Z,16.53
2016-06-20T03:17:40.943Z,16.5
2016-06-20T03:18:40.978Z,16.5
2016-06-20T03:19:40.981Z,16.51
2016-06-20T03:20:41.002Z,16.42
2016-06-20T03:21:41.661Z,16.36
2016-06-20T03:22:41.056Z,16.42
2016-06-20T03:23:41.184Z,16.39
2016-06-20T03:24:41.110Z,16.43
2016-06-20T03:25:41.128Z,16.39
2016-06-20T03:26:41.773Z,16.33
2016-06-20T03:27:41.229Z,16.38
2016-06-20T03:28:41.201Z,16.39
2016-06-20T03:29:41.221Z,16.42
2016-06-20T03:30:41.239Z,16.41
2016-06-20T03:31:41.273Z,16.38
2016-06-20T03:32:41.293Z,16.41
2016-06-20T03:33:41.313Z,16.42
2016-06-20T03:34:41.347Z,16.38
2016-06-20T03:35:41.350Z,16.36
2016-06-20T03:36:41.385Z,16.36
2016-06-20T03:37:41.404Z,16.35
2016-06-20T03:38:41.439Z,16.24
2016-06-20T03:39:41.459Z,16.35
2016-06-20T03:40:41.477Z,16.17
2016-06-20T03:41:42.122Z,16.35
2016-06-20T03:42:41.531Z,16.24
2016-06-20T03:43:41.550Z,16.35
2016-06-20T03:44:41.601Z,16.26
2016-06-20T03:45:41.605Z,16.29
2016-06-20T03:46:41.622Z,16.23
2016-06-20T03:47:41.658Z,16.32
2016-06-20T03:48:41.676Z,16.24
2016-06-20T03:49:41.696Z,16.26
2016-06-20T03:50:41.730Z,16.24
2016-06-20T03:51:41.734Z,16.29
2016-06-20T03:52:41.768Z,16.31
2016-06-20T03:53:41.788Z,16.29
2016-06-20T03:54:41.869Z,16.23
2016-06-20T03:55:41.826Z,16.23
2016-06-20T03:56:41.860Z,16.23
2016-06-20T03:57:41.958Z,16.24
2016-06-20T03:58:42.539Z,16.23
2016-06-20T03:59:41.918Z,16.17
2016-06-20T04:00:41.953Z,16.17
2016-06-20T04:01:41.971Z,16.28
2016-06-20T04:02:42.616Z,16.17
2016-06-20T04:03:42.025Z,16.26
2016-06-20T04:04:42.685Z,16.16
2016-06-20T04:05:42.204Z,16.24
2016-06-20T04:06:42.098Z,16.2
2016-06-20T04:07:42.352Z,16.16
2016-06-20T04:08:42.137Z,16.21
2016-06-20T04:09:42.155Z,16.2
2016-06-20T04:10:42.800Z,16.16
2016-06-20T04:11:42.225Z,16.21
2016-06-20T04:12:42.244Z,16.2
2016-06-20T04:13:42.873Z,16.2
2016-06-20T04:14:42.392Z,16.16
2016-06-20T04:15:42.973Z,16.2
2016-06-20T04:16:42.946Z,16.2
2016-06-20T04:17:42.355Z,16.15
2016-06-20T04:18:42.374Z,16.2
2016-06-20T04:19:42.409Z,16.21
2016-06-20T04:20:42.429Z,16.2
2016-06-20T04:21:42.446Z,16.16
2016-06-20T04:22:42.497Z,16.17
2016-06-20T04:23:42.500Z,16.13
2016-06-20T04:24:43.129Z,16.15
2016-06-20T04:25:42.539Z,16.12
2016-06-20T04:26:42.636Z,16.15
2016-06-20T04:27:42.608Z,16.13
2016-06-20T04:28:42.612Z,16.16
2016-06-20T04:29:42.646Z,16.13
2016-06-20T04:30:42.728Z,16.17
2016-06-20T04:31:42.701Z,16.17
2016-06-20T04:32:42.704Z,16.12
2016-06-20T04:33:43.363Z,16.15
2016-06-20T04:34:43.366Z,16.15
2016-06-20T04:35:42.870Z,16.17
2016-06-20T04:36:42.795Z,16.12
2016-06-20T04:37:43.018Z,16.12
2016-06-20T04:38:42.849Z,16.1
2016-06-20T04:39:42.869Z,16.16
2016-06-20T04:40:42.887Z,16.15
2016-06-20T04:41:42.923Z,16.13
2016-06-20T04:42:42.941Z,16.16
2016-06-20T04:43:43.070Z,16.16
2016-06-20T04:44:43.089Z,16.16
2016-06-20T04:45:43.734Z,16.17
2016-06-20T04:46:43.033Z,16.16
2016-06-20T04:47:43.053Z,16.13
2016-06-20T04:48:43.072Z,16.17
2016-06-20T04:49:43.090Z,16.17
2016-06-20T04:50:43.126Z,16.15
2016-06-20T04:51:43.770Z,16.2
2016-06-20T04:52:43.288Z,16.23
2016-06-20T04:53:43.198Z,16.21
2016-06-20T04:54:43.218Z,16.16
2016-06-20T04:55:43.252Z,16.17
2016-06-20T04:56:43.255Z,16.13
2016-06-20T04:57:43.306Z,16.17
2016-06-20T04:58:43.309Z,16.17
2016-06-20T04:59:43.328Z,16.2
2016-06-20T05:00:43.364Z,16.21
2016-06-20T05:01:43.382Z,16.2
2016-06-20T05:02:43.418Z,16.17
2016-06-20T05:03:44.046Z,16.26
2016-06-20T05:04:43.455Z,16.28
2016-06-20T05:05:43.490Z,16.28
2016-06-20T05:06:43.682Z,16.26
2016-06-20T05:07:43.528Z,16.2
2016-06-20T05:08:43.547Z,16.23
2016-06-20T05:09:43.582Z,16.26
2016-06-20T05:10:44.210Z,16.31
2016-06-20T05:11:43.619Z,16.24
2016-06-20T05:12:43.655Z,16.26
2016-06-20T05:13:43.689Z,16.23
2016-06-20T05:14:43.787Z,16.24
2016-06-20T05:15:43.712Z,16.28
2016-06-20T05:16:43.731Z,16.28
2016-06-20T05:17:43.970Z,16.28
2016-06-20T05:18:43.785Z,16.17
2016-06-20T05:19:43.819Z,16.23
2016-06-20T05:20:43.823Z,16.28
2016-06-20T05:21:43.842Z,16.33
2016-06-20T05:22:43.876Z,16.39
2016-06-20T05:23:43.911Z,16.24
2016-06-20T05:24:44.649Z,16.35
2016-06-20T05:25:44.043Z,16.29
2016-06-20T05:26:44.000Z,16.33
2016-06-20T05:27:44.004Z,16.35
2016-06-20T05:28:44.007Z,16.38
2016-06-20T05:29:44.042Z,16.33
2016-06-20T05:30:44.076Z,16.42
2016-06-20T05:31:44.283Z,16.38
2016-06-20T05:32:44.208Z,16.41
2016-06-20T05:33:44.149Z,16.41
2016-06-20T05:34:44.778Z,16.43
2016-06-20T05:35:44.188Z,16.43
2016-06-20T05:36:44.206Z,16.41
2016-06-20T05:37:44.226Z,16.38
2016-06-20T05:38:44.260Z,16.46
2016-06-20T05:39:44.279Z,16.39
2016-06-20T05:40:44.299Z,16.42
2016-06-20T05:41:45.645Z,16.49
2016-06-20T05:42:44.962Z,16.41
2016-06-20T05:43:44.355Z,16.47
2016-06-20T05:44:44.390Z,16.51
2016-06-20T05:45:44.425Z,16.56
2016-06-20T05:46:44.429Z,16.53
2016-06-20T05:47:44.682Z,16.46
2016-06-20T05:48:44.513Z,16.5
2016-06-20T05:49:44.517Z,16.51
2016-06-20T05:50:45.145Z,16.51
2016-06-20T05:51:44.555Z,16.49
2016-06-20T05:52:44.590Z,16.56
2016-06-20T05:53:44.609Z,16.58
2016-06-20T05:54:44.628Z,16.54
2016-06-20T05:55:44.663Z,16.6
2016-06-20T05:56:45.291Z,16.61
2016-06-20T05:57:44.685Z,16.68
2016-06-20T05:58:44.751Z,16.66
2016-06-20T05:59:44.754Z,16.65
2016-06-20T06:00:44.774Z,16.65
2016-06-20T06:01:44.793Z,16.61
2016-06-20T06:02:44.828Z,16.61
2016-06-20T06:03:44.846Z,16.71
2016-06-20T06:04:44.882Z,16.61
2016-06-20T06:05:44.885Z,16.78
2016-06-20T06:06:45.514Z,16.68
2016-06-20T06:07:44.938Z,16.72
2016-06-20T06:08:44.974Z,16.72
2016-06-20T06:09:44.977Z,16.71
2016-06-20T06:10:45.042Z,16.78
2016-06-20T06:11:45.640Z,16.79
2016-06-20T06:12:45.049Z,16.79
2016-06-20T06:13:45.178Z,16.86
2016-06-20T06:14:45.181Z,16.83
2016-06-20T06:15:45.232Z,16.83
2016-06-20T06:16:45.220Z,16.83
2016-06-20T06:17:45.879Z,16.78
2016-06-20T06:18:45.196Z,16.79
2016-06-20T06:19:45.309Z,16.86
2016-06-20T06:20:45.233Z,16.89
2016-06-20T06:21:45.253Z,16.89
2016-06-20T06:22:45.287Z,16.9
2016-06-20T06:23:45.932Z,16.99
2016-06-20T06:24:45.326Z,16.91
2016-06-20T06:25:45.469Z,17.04
2016-06-20T06:26:45.458Z,16.96
2016-06-20T06:27:45.399Z,16.99
2016-06-20T06:28:58.777Z,16.96
2016-06-20T06:29:45.436Z,16.94
2016-06-20T06:30:45.518Z,17.06
2016-06-20T06:31:45.506Z,16.99
2016-06-20T06:32:45.510Z,17.06
2016-06-20T06:33:45.544Z,16.93
2016-06-20T06:34:45.578Z,16.91
2016-06-20T06:35:45.582Z,16.97
2016-06-20T06:36:45.617Z,16.96
2016-06-20T06:37:45.636Z,16.96
2016-06-20T06:38:45.655Z,17.02
2016-06-20T06:39:45.690Z,17.02
2016-06-20T06:40:45.709Z,16.97
2016-06-20T06:41:45.743Z,16.99
2016-06-20T06:42:45.763Z,17.12
2016-06-20T06:43:46.391Z,17.05
2016-06-20T06:44:47.052Z,17.05
2016-06-20T06:45:45.836Z,17.06
2016-06-20T06:46:45.855Z,17.08
2016-06-20T06:47:45.874Z,17.12
2016-06-20T06:48:45.909Z,17.12
2016-06-20T06:49:45.913Z,17.14
2016-06-20T06:50:45.947Z,17.19
2016-06-20T06:51:46.013Z,17.2
2016-06-20T06:52:46.001Z,17.2
2016-06-20T06:53:46.644Z,17.26
2016-06-20T06:54:46.039Z,17.26
2016-06-20T06:55:46.073Z,17.31
2016-06-20T06:56:46.093Z,17.38
2016-06-20T06:57:46.111Z,17.36
2016-06-20T06:58:46.131Z,17.34
2016-06-20T06:59:46.165Z,17.33
2016-06-20T07:00:46.185Z,17.44
2016-06-20T07:01:46.939Z,17.46
2016-06-20T07:02:46.910Z,17.49
2016-06-20T07:03:46.257Z,17.52
2016-06-20T07:04:46.277Z,17.57
2016-06-20T07:05:46.296Z,17.56
2016-06-20T07:06:46.330Z,17.52
2016-06-20T07:07:46.350Z,17.65
2016-06-20T07:08:46.385Z,17.67
2016-06-20T07:09:46.435Z,17.68
2016-06-20T07:10:46.422Z,17.67
2016-06-20T07:11:46.442Z,17.7
2016-06-20T07:12:46.460Z,17.78
2016-06-20T07:13:46.496Z,17.83
2016-06-20T07:14:46.514Z,17.83
2016-06-20T07:15:46.533Z,17.9
2016-06-20T07:16:46.568Z,17.98
2016-06-20T07:17:47.213Z,17.98
2016-06-20T07:18:46.622Z,18.07
2016-06-20T07:19:46.641Z,18.05
2016-06-20T07:20:47.285Z,18.13
2016-06-20T07:21:47.304Z,18.18
2016-06-20T07:22:47.323Z,18.2
2016-06-20T07:23:46.749Z,18.31
2016-06-20T07:24:47.376Z,18.35
2016-06-20T07:25:46.787Z,18.37
2016-06-20T07:26:46.790Z,18.45
2016-06-20T07:27:46.872Z,18.44
2016-06-20T07:28:46.876Z,18.56
2016-06-20T07:29:46.885Z,18.62
2016-06-20T07:30:46.911Z,18.66
2016-06-20T07:31:46.938Z,18.75
2016-06-20T07:32:46.980Z,18.77
2016-06-20T07:33:47.006Z,18.89
2016-06-20T07:34:47.028Z,18.92
2016-06-20T07:35:47.066Z,18.95
2016-06-20T07:36:47.102Z,18.96
2016-06-20T07:37:47.108Z,19.02
2016-06-20T07:38:47.145Z,19.18
2016-06-20T07:39:47.166Z,19.29
2016-06-20T07:40:47.202Z,19.3
2016-06-20T07:41:47.206Z,19.45
2016-06-20T07:42:47.429Z,19.4
2016-06-20T07:43:47.278Z,19.63
2016-06-20T07:44:47.313Z,19.59
2016-06-20T07:45:47.317Z,19.56
2016-06-20T07:46:47.335Z,19.74
2016-06-20T07:47:47.465Z,19.76
2016-06-20T07:48:47.390Z,19.84
2016-06-20T07:49:47.410Z,19.88
2016-06-20T07:50:47.445Z,19.94
2016-06-20T07:51:47.463Z,20.07
2016-06-20T07:52:47.499Z,20.16
2016-06-20T07:53:47.610Z,20.13
2016-06-20T07:54:47.536Z,20.25
2016-06-20T07:55:47.572Z,20.31
2016-06-20T07:56:47.590Z,20.32
2016-06-20T07:57:47.610Z,20.39
2016-06-20T07:58:47.660Z,20.44
2016-06-20T07:59:47.679Z,20.47
2016-06-20T08:00:47.698Z,20.59
2016-06-20T08:01:47.717Z,20.69
2016-06-20T08:02:47.846Z,20.63
2016-06-20T08:03:47.864Z,20.72
2016-06-20T08:04:47.806Z,20.77
2016-06-20T08:05:47.919Z,20.77
2016-06-20T08:06:48.578Z,20.96
2016-06-20T08:07:48.081Z,21.02
2016-06-20T08:08:47.992Z,21
2016-06-20T08:09:47.916Z,21.14
2016-06-20T08:10:47.952Z,21.24
2016-06-20T08:11:47.970Z,21.27
2016-06-20T08:12:48.614Z,21.35
2016-06-20T08:13:48.634Z,21.4
2016-06-20T08:14:48.246Z,21.37
2016-06-20T08:15:48.266Z,21.54
2016-06-20T08:16:48.113Z,21.55
2016-06-20T08:17:48.304Z,21.7
2016-06-20T08:18:48.151Z,21.69
2016-06-20T08:19:48.170Z,21.88
2016-06-20T08:20:48.298Z,21.96
2016-06-20T08:21:48.223Z,22.06
2016-06-20T08:22:48.868Z,22.1
2016-06-20T08:23:48.886Z,22.26
2016-06-20T08:24:48.297Z,22.29
2016-06-20T08:25:48.940Z,22.39
2016-06-20T08:26:48.960Z,22.44
2016-06-20T08:27:48.369Z,22.5
2016-06-20T08:28:48.388Z,22.55
2016-06-20T08:29:48.423Z,22.51
2016-06-20T08:30:49.083Z,22.59
2016-06-20T08:31:49.086Z,22.72
2016-06-20T08:32:48.511Z,22.72
2016-06-20T08:33:48.532Z,22.81
2016-06-20T08:34:48.550Z,22.81
2016-06-20T08:35:48.569Z,22.96
2016-06-20T08:36:49.228Z,23
2016-06-20T08:37:48.623Z,23.12
2016-06-20T08:38:48.657Z,23.2
2016-06-20T08:39:49.302Z,23.23
2016-06-20T08:40:48.712Z,23.39
2016-06-20T08:41:48.730Z,23.46
2016-06-20T08:42:49.374Z,23.54
2016-06-20T08:43:48.784Z,23.59
2016-06-20T08:44:48.803Z,23.74
2016-06-20T08:45:48.854Z,23.71
2016-06-20T08:46:48.857Z,23.76
2016-06-20T08:47:48.891Z,23.91
2016-06-20T08:48:48.926Z,23.92
2016-06-20T08:49:48.946Z,24.06
2016-06-20T08:50:49.090Z,24.2
2016-06-20T08:51:49.625Z,24.26
2016-06-20T08:52:49.034Z,24.38
2016-06-20T08:53:49.053Z,24.36
2016-06-20T08:54:49.088Z,24.48
2016-06-20T08:55:49.108Z,24.55
2016-06-20T08:56:49.142Z,24.61
2016-06-20T08:57:49.145Z,24.77
2016-06-20T08:58:49.915Z,24.7
2016-06-20T08:59:49.214Z,24.85
2016-06-20T09:00:49.233Z,24.86
2016-06-20T09:01:49.971Z,24.98
2016-06-20T09:02:49.288Z,25.03
2016-06-20T09:03:49.322Z,25.11
2016-06-20T09:04:49.357Z,25.14
2016-06-20T09:05:49.375Z,25.23
2016-06-20T09:06:49.411Z,25.28
2016-06-20T09:07:49.430Z,25.35
2016-06-20T09:08:49.449Z,25.36
2016-06-20T09:09:49.484Z,25.5
2016-06-20T09:10:49.519Z,25.46
2016-06-20T09:11:49.538Z,25.55
2016-06-20T09:12:49.573Z,25.48
2016-06-20T09:13:49.591Z,25.54
2016-06-20T09:14:49.641Z,25.6
2016-06-20T09:15:49.661Z,25.69
2016-06-20T09:16:49.711Z,25.69
2016-06-20T09:17:50.323Z,25.73
2016-06-20T09:18:49.780Z,25.75
2016-06-20T09:19:49.783Z,25.81
2016-06-20T09:20:49.787Z,25.84
2016-06-20T09:21:50.462Z,25.9
2016-06-20T09:22:49.966Z,25.95
2016-06-20T09:23:49.969Z,26.02
2016-06-20T09:24:49.910Z,26.1
2016-06-20T09:25:49.929Z,26.25
2016-06-20T09:26:50.590Z,26.1
2016-06-20T09:27:50.046Z,26.29
2016-06-20T09:28:50.643Z,26.29
2016-06-20T09:29:50.662Z,26.22
2016-06-20T09:30:50.071Z,26.38
2016-06-20T09:31:50.732Z,26.44
2016-06-20T09:32:50.126Z,26.45
2016-06-20T09:33:50.238Z,26.48
2016-06-20T09:34:50.195Z,26.53
2016-06-20T09:35:50.964Z,26.53
2016-06-20T09:36:50.249Z,26.59
2016-06-20T09:37:50.283Z,26.58
2016-06-20T09:38:50.318Z,26.65
2016-06-20T09:39:50.977Z,26.63
2016-06-20T09:40:50.560Z,26.74
2016-06-20T09:41:51.016Z,26.74
2016-06-20T09:42:50.426Z,26.8
2016-06-20T09:43:50.446Z,26.88
2016-06-20T09:44:51.089Z,26.83
2016-06-20T09:45:50.515Z,26.85
2016-06-20T09:46:50.643Z,26.96
2016-06-20T09:47:51.256Z,26.92
2016-06-20T09:48:50.603Z,26.9
2016-06-20T09:49:50.622Z,27
2016-06-20T09:50:51.265Z,27.03
2016-06-20T09:51:50.691Z,26.97
2016-06-20T09:52:50.710Z,27.08
2016-06-20T09:53:50.745Z,27.12
2016-06-20T09:54:51.389Z,27.12
2016-06-20T09:55:50.799Z,27.18
2016-06-20T09:56:50.833Z,27.18
2016-06-20T09:57:50.884Z,27.25
2016-06-20T09:58:50.918Z,27.25
2016-06-20T09:59:51.563Z,27.32
2016-06-20T10:00:51.582Z,27.36
2016-06-20T10:01:50.991Z,27.4
2016-06-20T10:02:51.042Z,27.42
2016-06-20T10:03:51.029Z,27.33
2016-06-20T10:04:51.064Z,27.4
2016-06-20T10:05:51.100Z,27.47
2016-06-20T10:06:51.743Z,27.47
2016-06-20T10:07:51.779Z,27.45
2016-06-20T10:08:51.188Z,27.44
2016-06-20T10:09:51.207Z,27.55
2016-06-20T10:10:51.882Z,27.49
2016-06-20T10:11:51.277Z,27.48
2016-06-20T10:12:51.311Z,27.54
2016-06-20T10:13:51.345Z,27.48
2016-06-20T10:14:51.364Z,27.51
2016-06-20T10:15:51.400Z,27.51
2016-06-20T10:16:51.419Z,27.51
2016-06-20T10:17:51.500Z,27.54
2016-06-20T10:18:51.488Z,27.49
2016-06-20T10:19:51.507Z,27.47
2016-06-20T10:20:51.541Z,27.49
2016-06-20T10:21:51.577Z,27.58
2016-06-20T10:22:52.221Z,27.55
2016-06-20T10:23:51.630Z,27.49
2016-06-20T10:24:51.696Z,27.54
2016-06-20T10:25:51.700Z,27.47
2016-06-20T10:26:51.734Z,27.54
2016-06-20T10:27:51.768Z,27.55
2016-06-20T10:28:52.413Z,27.59
2016-06-20T10:29:51.823Z,27.63
2016-06-20T10:30:51.842Z,27.6
2016-06-20T10:31:51.877Z,27.78
2016-06-20T10:32:51.911Z,27.67
2016-06-20T10:33:52.103Z,27.78
2016-06-20T10:34:52.059Z,27.85
2016-06-20T10:35:52.219Z,27.92
2016-06-20T10:36:52.238Z,27.87
2016-06-20T10:37:52.257Z,27.83
2016-06-20T10:38:52.245Z,28
2016-06-20T10:39:52.264Z,28.02
2016-06-20T10:40:52.267Z,28
2016-06-20T10:41:52.271Z,28.01
2016-06-20T10:42:52.415Z,28.07
2016-06-20T10:43:53.043Z,28.14
2016-06-20T10:44:53.062Z,28.15
2016-06-20T10:45:52.316Z,28.19
2016-06-20T10:46:52.335Z,28.15
2016-06-20T10:47:53.135Z,28.22
2016-06-20T10:48:52.405Z,28.27
2016-06-20T10:49:52.424Z,28.2
2016-06-20T10:50:52.474Z,28.29
2016-06-20T10:51:52.540Z,28.27
2016-06-20T10:52:52.527Z,28.27
2016-06-20T10:53:52.547Z,28.3
2016-06-20T10:54:53.269Z,28.3
2016-06-20T10:55:52.632Z,28.32
2016-06-20T10:56:52.651Z,28.3
2016-06-20T10:57:52.686Z,28.27
2016-06-20T10:58:52.705Z,28.23
2016-06-20T10:59:52.770Z,28.22
2016-06-20T11:00:52.774Z,28.19
2016-06-20T11:01:52.903Z,28.19
2016-06-20T11:02:52.906Z,28.2
2016-06-20T11:03:52.940Z,28.19
2016-06-20T11:04:53.054Z,28.12
2016-06-20T11:05:53.072Z,28.11
2016-06-20T11:06:53.076Z,28.1
2016-06-20T11:07:53.079Z,28.12
2016-06-20T11:08:53.223Z,28.07
2016-06-20T11:09:53.227Z,28.14
2016-06-20T11:10:53.247Z,28.15
2016-06-20T11:11:53.875Z,28.19
2016-06-20T11:12:53.268Z,28.25
2016-06-20T11:13:53.257Z,28.29
2016-06-20T11:14:53.385Z,28.3
2016-06-20T11:15:53.873Z,28.41
2016-06-20T11:16:53.268Z,28.48
2016-06-20T11:17:53.927Z,28.48
2016-06-20T11:18:53.336Z,28.52
2016-06-20T11:19:53.371Z,28.56
2016-06-20T11:20:54.015Z,28.59
2016-06-20T11:21:53.425Z,28.69
2016-06-20T11:22:53.459Z,28.76
2016-06-20T11:23:54.120Z,28.67
2016-06-20T11:24:53.529Z,28.81
2016-06-20T11:25:53.549Z,28.81
2016-06-20T11:26:53.598Z,28.88
2016-06-20T11:27:53.664Z,28.98
2016-06-20T11:28:53.652Z,29.01
2016-06-20T11:29:54.327Z,29.04
2016-06-20T11:30:53.722Z,29.22
2016-06-20T11:31:54.365Z,29.27
2016-06-20T11:32:53.775Z,29.35
2016-06-20T11:33:53.810Z,29.5
2016-06-20T11:34:53.844Z,29.49
2016-06-20T11:35:53.879Z,29.6
2016-06-20T11:36:53.930Z,29.65
2016-06-20T11:37:53.949Z,29.72
2016-06-20T11:38:54.593Z,29.87
2016-06-20T11:39:54.003Z,29.88
2016-06-20T11:40:54.646Z,29.98
2016-06-20T11:41:54.072Z,30.06
2016-06-20T11:42:55.342Z,30.15
2016-06-20T11:43:54.126Z,30.3
2016-06-20T11:44:54.176Z,30.3
2016-06-20T11:45:54.196Z,30.44
2016-06-20T11:46:54.230Z,30.5
2016-06-20T11:47:54.875Z,30.54
2016-06-20T11:48:54.284Z,30.68
2016-06-20T11:49:54.335Z,30.69
2016-06-20T11:50:54.994Z,30.72
2016-06-20T11:51:54.388Z,30.88
2016-06-20T11:52:54.422Z,30.92
2016-06-20T11:53:54.473Z,31.03
2016-06-20T11:54:54.492Z,31.17
2016-06-20T11:55:55.136Z,31.25
2016-06-20T11:56:55.187Z,31.4
2016-06-20T11:57:59.612Z,31.43
2016-06-20T12:11:33.873Z,32.68
2016-06-20T12:12:39.362Z,32.68
2016-06-20T12:13:32.662Z,32.78
2016-06-20T12:14:31.963Z,32.85
2016-06-20T12:15:31.998Z,32.82
2016-06-20T12:16:32.032Z,33
2016-06-20T12:17:32.068Z,32.96
2016-06-20T12:18:32.711Z,33.12
2016-06-20T12:19:32.137Z,33.24
2016-06-20T12:20:32.782Z,33.3
2016-06-20T12:21:32.192Z,33.3
2016-06-20T12:22:32.867Z,33.32
2016-06-20T12:23:32.276Z,33.3
2016-06-20T12:24:32.311Z,33.28
2016-06-20T12:25:32.346Z,33.3
2016-06-20T12:26:32.364Z,33.39
2016-06-20T12:27:32.400Z,33.36
2016-06-20T12:28:32.434Z,33.39
2016-06-20T12:29:32.469Z,33.42
2016-06-20T12:30:32.519Z,33.5
2016-06-20T12:31:33.492Z,33.52
2016-06-20T12:32:32.588Z,33.58
2016-06-20T12:33:32.624Z,33.58
2016-06-20T12:34:33.408Z,33.64
2016-06-20T12:35:32.678Z,33.49
2016-06-20T12:36:32.728Z,33.4
2016-06-20T12:37:34.060Z,33.32
2016-06-20T12:38:32.797Z,33.28
2016-06-20T12:39:32.817Z,33.09
2016-06-20T12:40:33.476Z,32.96
2016-06-20T12:41:32.901Z,32.86
2016-06-20T12:42:33.544Z,32.9
2016-06-20T12:43:33.581Z,32.77
2016-06-20T12:44:33.005Z,32.77
2016-06-20T12:45:33.024Z,32.82
2016-06-20T12:46:33.058Z,32.83
2016-06-20T12:47:33.125Z,32.8
2016-06-20T12:48:33.144Z,32.74
2016-06-20T12:49:33.179Z,32.73
2016-06-20T12:50:33.197Z,32.86
2016-06-20T12:51:33.873Z,32.89
2016-06-20T12:52:33.502Z,32.93
2016-06-20T12:53:33.927Z,33.02
2016-06-20T12:54:33.336Z,33.2
2016-06-20T12:55:33.387Z,33.27
2016-06-20T12:56:34.187Z,33.32
2016-06-20T12:57:33.441Z,33.4
2016-06-20T12:58:33.475Z,33.43
2016-06-20T12:59:33.526Z,33.57
2016-06-20T13:00:33.560Z,33.68
2016-06-20T13:01:33.580Z,33.68
2016-06-20T13:02:34.239Z,33.69
2016-06-20T13:03:33.649Z,33.67
2016-06-20T13:04:33.715Z,33.62
2016-06-20T13:05:33.719Z,33.64
2016-06-20T13:06:33.769Z,33.68
2016-06-20T13:07:33.788Z,33.86
2016-06-20T13:08:33.838Z,33.83
2016-06-20T13:09:33.874Z,33.94